createdAt,value
2023-04-13T00:01:59.759Z,3.20
2023-04-13T00:04:31.330Z,3.20
2023-04-13T00:07:03.934Z,3.30
2023-04-13T00:09:33.451Z,3.20
2023-04-13T00:12:01.693Z,3.40
2023-04-13T00:14:35.954Z,2.80
2023-04-13T00:17:08.198Z,2.90
2023-04-13T00:19:37.973Z,3.40
2023-04-13T00:22:09.841Z,3.00
2023-04-13T00:24:44.696Z,3.30
2023-04-13T00:27:14.488Z,3.00
2023-04-13T00:29:42.943Z,2.90
2023-04-13T00:32:13.244Z,2.80
2023-04-13T00:34:45.328Z,3.10
2023-04-13T00:37:15.024Z,2.90
2023-04-13T00:39:46.486Z,3.10
2023-04-13T00:42:15.713Z,2.90
2023-04-13T00:44:44.368Z,3.00
2023-04-13T00:47:14.360Z,3.00
2023-04-13T00:49:43.790Z,3.20
2023-04-13T00:52:13.683Z,2.80
2023-04-13T00:54:43.583Z,3.20
2023-04-13T00:57:12.855Z,3.20
2023-04-13T00:59:41.156Z,2.70
2023-04-13T01:02:11.255Z,3.10
2023-04-13T01:04:46.035Z,2.80
2023-04-13T01:07:26.012Z,2.70
2023-04-13T01:10:38.128Z,2.70
2023-04-13T01:13:31.722Z,3.00
2023-04-13T01:16:20.849Z,3.10
2023-04-13T01:18:51.581Z,2.70
2023-04-13T01:21:23.202Z,2.90
2023-04-13T01:24:24.361Z,3.60
2023-04-13T01:26:58.601Z,2.60
2023-04-13T01:29:26.959Z,2.60
2023-04-13T01:31:55.213Z,2.80
2023-04-13T01:34:23.669Z,3.50
2023-04-13T01:36:51.915Z,3.20
2023-04-13T01:39:21.012Z,3.20
2023-04-13T01:41:56.263Z,3.10
2023-04-13T01:44:33.136Z,2.80
2023-04-13T01:47:16.317Z,3.40
2023-04-13T01:50:10.461Z,3.30
2023-04-13T01:52:50.892Z,3.40
2023-04-13T01:55:19.216Z,3.00
2023-04-13T01:57:55.183Z,3.80
2023-04-13T02:00:32.164Z,3.10
2023-04-13T02:03:01.975Z,3.80
2023-04-13T02:05:31.953Z,3.30
2023-04-13T02:08:00.820Z,3.50
2023-04-13T02:10:29.728Z,3.50
2023-04-13T02:13:01.061Z,3.60
2023-04-13T02:15:31.062Z,3.80
2023-04-13T02:18:00.991Z,3.20
2023-04-13T02:20:30.911Z,3.50
2023-04-13T02:23:03.679Z,3.50
2023-04-13T02:25:32.609Z,3.20
2023-04-13T02:28:01.678Z,2.90
2023-04-13T02:30:30.318Z,3.20
2023-04-13T02:33:01.184Z,3.40
2023-04-13T02:35:30.778Z,3.30
2023-04-13T02:37:59.344Z,3.10
2023-04-13T02:40:28.988Z,3.20
2023-04-13T02:43:00.194Z,3.20
2023-04-13T02:45:29.821Z,3.00
2023-04-13T02:48:06.831Z,3.60
2023-04-13T02:50:36.027Z,3.20
2023-04-13T02:53:08.158Z,3.80
2023-04-13T02:55:43.595Z,3.60
2023-04-13T02:58:13.826Z,3.80
2023-04-13T03:00:44.844Z,3.80
2023-04-13T03:03:20.636Z,3.80
2023-04-13T03:05:51.760Z,4.00
2023-04-13T03:08:23.954Z,4.20
2023-04-13T03:11:26.523Z,3.40
2023-04-13T03:14:23.115Z,3.20
2023-04-13T03:17:03.577Z,3.60
2023-04-13T03:19:38.615Z,3.30
2023-04-13T03:22:08.548Z,3.30
2023-04-13T03:24:40.133Z,3.80
2023-04-13T03:27:09.587Z,3.30
2023-04-13T03:29:42.570Z,3.40
2023-04-13T03:32:13.960Z,3.80
2023-04-13T03:34:44.654Z,3.90
2023-04-13T03:37:15.405Z,3.60
2023-04-13T03:39:46.837Z,3.30
2023-04-13T03:42:18.604Z,4.00
2023-04-13T03:44:52.766Z,3.90
2023-04-13T03:47:21.558Z,3.30
2023-04-13T03:49:50.709Z,3.40
2023-04-13T03:52:19.929Z,3.50
2023-04-13T03:54:53.953Z,3.50
2023-04-13T03:57:22.905Z,3.80
2023-04-13T03:59:51.679Z,3.40
2023-04-13T04:02:28.138Z,4.10
2023-04-13T04:04:56.958Z,4.10
2023-04-13T04:07:25.699Z,4.00
2023-04-13T04:09:54.642Z,4.10
2023-04-13T04:12:24.118Z,3.90
2023-04-13T04:14:52.684Z,3.50
2023-04-13T04:18:41.781Z,3.90
2023-04-13T04:21:13.341Z,4.00
2023-04-13T04:23:41.994Z,4.10
2023-04-13T04:26:14.222Z,4.80
2023-04-13T04:28:50.728Z,4.40
2023-04-13T04:31:22.075Z,4.30
2023-04-13T04:33:53.658Z,4.70
2023-04-13T04:36:24.338Z,4.20
2023-04-13T04:39:02.905Z,4.40
2023-04-13T04:41:37.979Z,4.50
2023-04-13T04:44:07.955Z,4.20
2023-04-13T04:46:41.954Z,4.40
2023-04-13T04:49:13.382Z,4.30
2023-04-13T04:51:42.190Z,4.00
2023-04-13T04:54:11.193Z,4.60
2023-04-13T04:56:40.036Z,3.90
2023-04-13T04:59:10.640Z,4.30
2023-04-13T05:01:46.945Z,3.90
2023-04-13T05:04:16.003Z,4.10
2023-04-13T05:06:44.920Z,4.50
2023-04-13T05:09:19.427Z,4.10
2023-04-13T05:11:51.798Z,4.10
2023-04-13T05:14:21.281Z,4.30
2023-04-13T05:16:52.144Z,4.00
2023-04-13T05:19:25.994Z,3.90
2023-04-13T05:22:02.476Z,4.00
2023-04-13T05:24:36.317Z,4.60
2023-04-13T05:27:09.956Z,4.10
2023-04-13T05:29:38.705Z,4.80
2023-04-13T05:32:07.862Z,4.50
2023-04-13T05:34:38.348Z,4.70
2023-04-13T05:37:14.934Z,4.70
2023-04-13T05:39:45.351Z,4.30
2023-04-13T05:42:15.665Z,4.60
2023-04-13T05:44:47.813Z,4.60
2023-04-13T05:47:19.164Z,4.80
2023-04-13T05:49:48.032Z,4.80
2023-04-13T05:52:22.153Z,4.50
2023-04-13T05:54:50.853Z,4.20
2023-04-13T05:57:23.384Z,5.00
2023-04-13T05:59:54.605Z,4.30
2023-04-13T06:02:26.856Z,4.60
2023-04-13T06:04:56.648Z,4.90
2023-04-13T06:07:26.355Z,4.30
2023-04-13T06:09:54.887Z,4.40
2023-04-13T06:15:02.637Z,3.30
2023-04-13T06:17:32.595Z,4.10
2023-04-13T06:20:01.139Z,3.80
2023-04-13T06:22:31.148Z,4.10
2023-04-13T06:25:00.254Z,3.80
2023-04-13T06:27:35.567Z,4.00
2023-04-13T06:30:06.355Z,3.60
2023-04-13T06:32:37.318Z,3.60
2023-04-13T06:35:06.287Z,4.00
2023-04-13T06:37:42.657Z,4.50
2023-04-13T06:40:14.988Z,3.90
2023-04-13T06:42:53.718Z,4.70
2023-04-13T06:45:33.920Z,4.40
2023-04-13T06:48:06.243Z,4.10
2023-04-13T06:50:34.740Z,4.40
2023-04-13T06:53:04.845Z,4.40
2023-04-13T06:55:34.144Z,4.30
2023-04-13T06:58:03.421Z,3.60
2023-04-13T07:00:32.403Z,4.30
2023-04-13T07:03:02.934Z,4.70
2023-04-13T07:05:32.180Z,4.60
2023-04-13T07:08:06.608Z,4.30
2023-04-13T07:10:39.463Z,4.80
2023-04-13T07:13:12.385Z,4.60
2023-04-13T07:15:40.740Z,4.70
2023-04-13T07:18:09.651Z,5.10
2023-04-13T07:20:39.985Z,4.40
2023-04-13T07:23:09.674Z,4.70
2023-04-13T07:25:38.478Z,4.10
2023-04-13T07:28:09.214Z,4.60
2023-04-13T07:30:37.779Z,4.80
2023-04-13T07:33:06.889Z,4.80
2023-04-13T07:35:55.970Z,4.70
2023-04-13T07:38:27.680Z,4.80
2023-04-13T07:40:56.851Z,4.60
2023-04-13T07:43:27.991Z,4.30
2023-04-13T07:45:58.061Z,4.60
2023-04-13T07:48:27.419Z,4.30
2023-04-13T07:51:01.261Z,4.20
2023-04-13T07:53:30.019Z,4.50
2023-04-13T07:55:58.651Z,4.30
2023-04-13T07:58:31.977Z,5.30
2023-04-13T08:01:01.299Z,4.40
2023-04-13T08:03:34.028Z,5.00
2023-04-13T08:06:09.815Z,5.70
2023-04-13T08:08:38.550Z,4.30
2023-04-13T08:11:08.802Z,4.20
2023-04-13T08:13:40.797Z,4.00
2023-04-13T08:16:11.429Z,4.30
2023-04-13T08:18:42.757Z,3.70
2023-04-13T08:21:12.157Z,3.60
2023-04-13T08:23:42.796Z,3.40
2023-04-13T08:26:19.098Z,3.70
2023-04-13T08:28:48.415Z,3.70
2023-04-13T08:31:22.022Z,3.60
2023-04-13T08:33:57.761Z,3.90
2023-04-13T08:36:27.686Z,3.30
2023-04-13T08:39:09.924Z,3.90
2023-04-13T08:41:41.979Z,3.00
2023-04-13T08:44:13.649Z,3.50
2023-04-13T08:46:45.563Z,3.60
2023-04-13T08:49:14.593Z,4.10
2023-04-13T08:52:05.038Z,4.10
2023-04-13T08:54:35.418Z,3.60
2023-04-13T08:57:05.146Z,3.40
2023-04-13T08:59:33.834Z,4.10
2023-04-13T09:02:06.911Z,3.90
2023-04-13T09:04:39.626Z,3.80
2023-04-13T09:07:08.558Z,4.20
2023-04-13T09:09:39.419Z,3.70
2023-04-13T09:12:11.104Z,4.10
2023-04-13T09:14:40.243Z,4.60
2023-04-13T09:17:08.676Z,4.30
2023-04-13T09:19:40.336Z,4.00
2023-04-13T09:22:16.362Z,4.10
2023-04-13T09:24:45.131Z,3.80
2023-04-13T09:27:23.741Z,3.80
2023-04-13T09:29:55.726Z,4.60
2023-04-13T09:32:26.249Z,3.90
2023-04-13T09:34:59.554Z,3.80
2023-04-13T09:37:28.574Z,3.80
2023-04-13T09:40:14.296Z,3.90
2023-04-13T09:43:04.778Z,3.50
2023-04-13T09:45:38.447Z,3.90
2023-04-13T09:48:21.411Z,4.00
2023-04-13T09:51:00.241Z,4.20
2023-04-13T09:53:39.768Z,4.30
2023-04-13T09:56:09.066Z,3.50
2023-04-13T09:58:43.535Z,4.00
2023-04-13T10:01:15.525Z,4.00
2023-04-13T10:03:44.220Z,3.80
2023-04-13T10:06:13.494Z,4.60
2023-04-13T10:08:43.873Z,4.20
2023-04-13T10:11:15.308Z,5.30
2023-04-13T10:13:52.819Z,4.20
2023-04-13T10:17:07.692Z,4.30
2023-04-13T10:19:48.311Z,4.20
2023-04-13T10:22:17.228Z,4.60
2023-04-13T10:24:47.193Z,4.80
2023-04-13T10:27:20.697Z,4.50
2023-04-13T10:29:50.145Z,5.10
2023-04-13T10:32:27.041Z,4.50
2023-04-13T10:34:55.875Z,4.30
2023-04-13T10:37:28.070Z,4.00
2023-04-13T10:40:09.078Z,4.20
2023-04-13T10:42:52.009Z,4.10
2023-04-13T10:45:26.361Z,3.50
2023-04-13T10:47:55.957Z,3.30
2023-04-13T10:50:25.374Z,4.00
2023-04-13T10:53:07.886Z,3.40
2023-04-13T10:55:36.371Z,3.40
2023-04-13T10:58:14.580Z,3.30
2023-04-13T11:00:46.008Z,3.50
2023-04-13T11:03:16.733Z,2.90
2023-04-13T11:05:59.258Z,3.40
2023-04-13T11:08:28.669Z,3.40
2023-04-13T11:10:57.686Z,3.10
2023-04-13T11:13:27.006Z,2.80
2023-04-13T11:16:03.256Z,3.40
2023-04-13T11:18:33.261Z,2.70
2023-04-13T11:21:06.028Z,2.60
2023-04-13T11:23:36.488Z,2.70
2023-04-13T11:26:05.512Z,2.90
2023-04-13T11:28:42.031Z,2.80
2023-04-13T11:31:12.094Z,2.90
2023-04-13T11:33:41.613Z,2.70
2023-04-13T11:36:12.151Z,2.60
2023-04-13T11:38:42.545Z,3.30
2023-04-13T11:43:46.670Z,3.00
2023-04-13T11:46:23.282Z,2.60
2023-04-13T11:48:52.749Z,2.40
2023-04-13T11:51:21.292Z,2.60
2023-04-13T11:53:51.513Z,2.60
2023-04-13T11:56:21.134Z,2.40
2023-04-13T11:58:53.450Z,2.60
2023-04-13T12:01:26.167Z,2.80
2023-04-13T12:06:38.652Z,2.50
2023-04-13T12:09:13.412Z,2.90
2023-04-13T12:11:50.334Z,2.70
2023-04-13T12:17:04.511Z,2.60
2023-04-13T12:19:46.661Z,2.70
2023-04-13T12:22:15.900Z,2.80
2023-04-13T12:24:48.209Z,2.70
2023-04-13T12:27:19.152Z,2.70
2023-04-13T12:29:49.155Z,3.00
2023-04-13T12:32:17.722Z,2.60
2023-04-13T12:34:47.105Z,2.70
2023-04-13T12:37:15.385Z,2.80
2023-04-13T12:39:43.872Z,2.80
2023-04-13T12:42:12.401Z,2.20
2023-04-13T12:44:41.198Z,2.50
2023-04-13T12:47:09.556Z,2.00
2023-04-13T12:49:37.988Z,2.50
2023-04-13T12:52:07.338Z,2.50
2023-04-13T12:54:35.720Z,2.70
2023-04-13T12:57:03.994Z,2.20
2023-04-13T12:59:32.629Z,1.90
2023-04-13T13:02:01.315Z,2.20
2023-04-13T13:04:31.805Z,2.80
2023-04-13T13:07:01.132Z,2.50
2023-04-13T13:09:30.122Z,2.40
2023-04-13T13:11:59.441Z,2.40
2023-04-13T13:14:28.266Z,2.60
2023-04-13T13:16:56.606Z,2.60
2023-04-13T13:19:26.364Z,2.80
2023-04-13T13:21:54.795Z,2.70
2023-04-13T13:24:23.580Z,3.20
2023-04-13T13:27:24.493Z,2.90
2023-04-13T13:29:41.656Z,2.80
2023-04-13T13:32:13.967Z,3.00
2023-04-13T13:34:43.091Z,2.60
2023-04-13T13:37:12.165Z,2.50
2023-04-13T13:39:41.327Z,2.50
2023-04-13T13:42:10.692Z,2.90
2023-04-13T13:44:39.031Z,3.00
2023-04-13T13:47:07.916Z,2.80
2023-04-13T13:49:38.534Z,2.80
2023-04-13T13:52:16.028Z,3.20
2023-04-13T13:54:50.218Z,2.80
2023-04-13T13:57:18.595Z,3.10
2023-04-13T13:59:49.283Z,2.80
2023-04-13T14:02:18.325Z,3.30
2023-04-13T14:04:47.189Z,3.00
2023-04-13T14:07:15.682Z,2.90
2023-04-13T14:09:45.541Z,2.50
2023-04-13T14:12:13.972Z,3.00
2023-04-13T14:14:42.594Z,2.90
2023-04-13T14:17:10.757Z,3.20
2023-04-13T14:19:40.258Z,3.60
2023-04-13T14:22:08.574Z,3.30
2023-04-13T14:24:39.025Z,3.10
2023-04-13T14:27:08.043Z,3.50
2023-04-13T14:29:36.502Z,3.00
2023-04-13T14:32:09.311Z,2.70
2023-04-13T14:34:37.874Z,3.30
2023-04-13T14:37:06.688Z,3.10
2023-04-13T14:39:36.922Z,3.10
2023-04-13T14:42:06.472Z,3.30
2023-04-13T14:44:34.929Z,3.60
2023-04-13T14:47:11.355Z,3.20
2023-04-13T14:49:40.317Z,3.10
2023-04-13T14:52:09.197Z,3.40
2023-04-13T14:54:39.308Z,3.50
2023-04-13T14:57:10.042Z,3.50
2023-04-13T14:59:38.494Z,3.60
2023-04-13T15:02:08.817Z,3.40
2023-04-13T15:04:37.883Z,4.00
2023-04-13T15:07:06.321Z,3.20
2023-04-13T15:09:34.715Z,3.40
2023-04-13T15:12:04.783Z,3.50
2023-04-13T15:14:34.834Z,3.30
2023-04-13T15:17:07.448Z,3.10
2023-04-13T15:19:36.422Z,3.50
2023-04-13T15:22:04.839Z,3.20
2023-04-13T15:24:33.480Z,3.40
2023-04-13T15:27:02.081Z,3.60
2023-04-13T15:29:31.066Z,3.50
2023-04-13T15:32:00.479Z,3.80
2023-04-13T15:34:28.971Z,3.60
2023-04-13T15:36:59.983Z,3.40
2023-04-13T15:39:29.013Z,3.60
2023-04-13T15:42:00.663Z,3.60
2023-04-13T15:44:29.206Z,3.30
2023-04-13T15:46:57.890Z,3.90
2023-04-13T15:49:26.277Z,3.70
2023-04-13T15:51:54.807Z,4.00
2023-04-13T15:54:23.215Z,3.80
2023-04-13T15:56:51.803Z,3.90
2023-04-13T15:59:21.672Z,4.40
2023-04-13T16:01:50.847Z,3.80
2023-04-13T16:04:19.646Z,3.90
2023-04-13T16:06:55.720Z,3.50
2023-04-13T16:09:35.462Z,3.80
2023-04-13T16:12:07.866Z,3.80
2023-04-13T16:14:42.182Z,3.90
2023-04-13T16:17:13.306Z,3.80
2023-04-13T16:19:47.109Z,4.10
2023-04-13T16:22:18.051Z,3.30
2023-04-13T16:24:49.784Z,3.80
2023-04-13T16:27:18.360Z,3.90
2023-04-13T16:29:46.809Z,4.30
2023-04-13T16:34:59.317Z,4.10
2023-04-13T16:37:27.730Z,4.40
2023-04-13T16:39:57.993Z,3.80
2023-04-13T16:42:26.331Z,4.60
2023-04-13T16:44:54.642Z,4.10
2023-04-13T16:47:23.272Z,4.40
2023-04-13T16:49:52.182Z,4.30
2023-04-13T16:52:20.437Z,4.20
2023-04-13T16:54:50.047Z,4.00
2023-04-13T16:57:18.429Z,4.00
2023-04-13T16:59:47.349Z,4.80
2023-04-13T17:02:30.334Z,3.80
2023-04-13T17:04:59.807Z,4.30
2023-04-13T17:07:29.923Z,3.80
2023-04-13T17:10:18.709Z,4.00
2023-04-13T17:12:48.297Z,3.90
2023-04-13T17:15:19.141Z,4.50
2023-04-13T17:17:48.128Z,3.90
2023-04-13T17:20:17.612Z,4.40
2023-04-13T17:22:47.296Z,4.40
2023-04-13T17:25:17.134Z,4.40
2023-04-13T17:27:47.417Z,4.30
2023-04-13T17:30:16.048Z,4.00
2023-04-13T17:32:57.903Z,4.30
2023-04-13T17:35:27.402Z,4.00
2023-04-13T17:37:55.635Z,4.10
2023-04-13T17:40:31.769Z,4.60
2023-04-13T17:43:00.522Z,4.30
2023-04-13T17:45:28.955Z,4.60
2023-04-13T17:48:02.889Z,4.30
2023-04-13T17:50:32.759Z,3.90
2023-04-13T17:53:04.380Z,4.40
2023-04-13T17:55:37.136Z,4.40
2023-04-13T17:58:06.172Z,5.00
2023-04-13T18:00:34.652Z,4.40
2023-04-13T18:03:05.787Z,4.80
2023-04-13T18:05:35.530Z,4.60
2023-04-13T18:08:04.112Z,4.60
2023-04-13T18:10:33.848Z,4.50
2023-04-13T18:13:08.399Z,4.20
2023-04-13T18:15:39.566Z,4.60
2023-04-13T18:18:08.097Z,3.90
2023-04-13T18:20:42.967Z,3.50
2023-04-13T18:23:12.136Z,3.60
2023-04-13T18:25:41.038Z,4.30
2023-04-13T18:28:09.281Z,3.70
2023-04-13T18:30:40.302Z,3.90
2023-04-13T18:33:10.026Z,3.70
2023-04-13T18:35:46.029Z,4.20
2023-04-13T18:38:14.789Z,4.00
2023-04-13T18:40:44.480Z,3.90
2023-04-13T18:43:13.504Z,3.40
2023-04-13T18:45:42.689Z,4.00
2023-04-13T18:48:11.663Z,3.30
2023-04-13T18:50:40.716Z,3.60
2023-04-13T18:53:09.929Z,4.00
2023-04-13T18:55:39.786Z,3.50
2023-04-13T18:58:10.621Z,3.60
2023-04-13T19:00:39.303Z,3.30
2023-04-13T19:03:09.070Z,3.70
2023-04-13T19:05:37.747Z,3.20
2023-04-13T19:08:10.019Z,3.60
2023-04-13T19:10:39.037Z,3.30
2023-04-13T19:13:07.541Z,3.60
2023-04-13T19:15:36.639Z,3.60
2023-04-13T19:18:06.401Z,3.90
2023-04-13T19:20:35.008Z,3.70
2023-04-13T19:23:04.196Z,3.90
2023-04-13T19:25:32.577Z,4.00
2023-04-13T19:28:02.211Z,4.20
2023-04-13T19:30:30.712Z,3.80
2023-04-13T19:33:00.062Z,4.30
2023-04-13T19:35:29.843Z,4.00
2023-04-13T19:37:58.243Z,4.50
2023-04-13T19:40:33.179Z,4.60
2023-04-13T19:43:02.037Z,4.80
2023-04-13T19:45:31.198Z,4.40
2023-04-13T19:48:00.200Z,4.30
2023-04-13T19:50:29.268Z,4.30
2023-04-13T19:52:58.585Z,4.10
2023-04-13T19:55:27.637Z,4.40
2023-04-13T19:57:56.119Z,4.00
2023-04-13T20:00:24.716Z,4.00
2023-04-13T20:03:02.983Z,3.90
2023-04-13T20:05:33.091Z,4.00
2023-04-13T20:08:01.497Z,3.90
2023-04-13T20:10:31.901Z,4.50
2023-04-13T20:13:01.626Z,4.00
2023-04-13T20:15:33.264Z,4.00
2023-04-13T20:18:04.065Z,4.30
2023-04-13T20:20:33.732Z,4.70
2023-04-13T20:23:02.750Z,4.80
2023-04-13T20:25:31.194Z,4.10
2023-04-13T20:28:00.837Z,4.80
2023-04-13T20:30:29.489Z,4.50
2023-04-13T20:32:58.658Z,4.60
2023-04-13T20:35:28.059Z,4.50
2023-04-13T20:38:00.133Z,4.60
2023-04-13T20:40:31.096Z,4.30
2023-04-13T20:42:59.458Z,4.20
2023-04-13T20:45:27.728Z,4.00
2023-04-13T20:47:57.598Z,3.60
2023-04-13T20:50:28.538Z,4.00
2023-04-13T20:52:59.888Z,4.10
2023-04-13T20:55:28.117Z,3.90
2023-04-13T20:57:57.038Z,3.30
2023-04-13T21:00:27.776Z,3.40
2023-04-13T21:02:58.271Z,4.00
2023-04-13T21:05:26.713Z,3.50
2023-04-13T21:07:57.092Z,3.60
2023-04-13T21:10:30.210Z,3.60
2023-04-13T21:12:59.998Z,3.60
2023-04-13T21:15:28.556Z,3.50
2023-04-13T21:18:07.595Z,3.30
2023-04-13T21:20:36.166Z,3.20
2023-04-13T21:23:04.682Z,3.80
2023-04-13T21:25:36.598Z,3.80
2023-04-13T21:28:05.005Z,3.40
2023-04-13T21:30:33.303Z,3.40
2023-04-13T21:33:03.034Z,3.80
2023-04-13T21:35:32.599Z,3.20
2023-04-13T21:38:04.575Z,3.30
2023-04-13T21:40:35.068Z,3.40
2023-04-13T21:43:03.681Z,3.20
2023-04-13T21:45:35.606Z,3.30
2023-04-13T21:48:04.690Z,3.70
2023-04-13T21:50:32.980Z,3.50
2023-04-13T21:53:01.942Z,3.40
2023-04-13T21:55:30.332Z,4.00
2023-04-13T21:57:58.808Z,3.80
2023-04-13T22:00:27.681Z,3.40
2023-04-13T22:02:56.897Z,3.50
2023-04-13T22:05:25.313Z,3.20
2023-04-13T22:07:54.331Z,3.40
2023-04-13T22:10:23.192Z,3.60
2023-04-13T22:12:51.890Z,3.30
2023-04-13T22:15:22.798Z,3.80
2023-04-13T22:17:52.876Z,3.10
2023-04-13T22:20:21.281Z,3.10
2023-04-13T22:22:49.836Z,3.30
2023-04-13T22:25:18.463Z,3.20
2023-04-13T22:27:46.730Z,3.40
2023-04-13T22:30:17.187Z,3.60
2023-04-13T22:32:46.285Z,3.20
2023-04-13T22:35:15.097Z,3.50
2023-04-13T22:37:43.402Z,3.50
2023-04-13T22:40:12.329Z,3.50
2023-04-13T22:42:41.319Z,3.40
2023-04-13T22:45:13.385Z,3.40
2023-04-13T22:47:43.075Z,3.20
2023-04-13T22:50:11.796Z,2.90
2023-04-13T22:52:43.929Z,3.20
2023-04-13T22:55:12.304Z,3.10
2023-04-13T22:57:40.892Z,3.10
2023-04-13T23:00:12.333Z,3.10
2023-04-13T23:02:42.481Z,3.30
2023-04-13T23:05:11.257Z,2.90
2023-04-13T23:07:39.727Z,3.10
2023-04-13T23:10:09.406Z,3.10
2023-04-13T23:12:38.082Z,2.70
2023-04-13T23:15:07.085Z,3.20
2023-04-13T23:17:35.776Z,3.90
2023-04-13T23:20:08.611Z,3.00
2023-04-13T23:22:37.528Z,3.00
2023-04-13T23:25:06.532Z,3.30
2023-04-13T23:27:35.115Z,3.30
2023-04-13T23:30:04.358Z,3.10
2023-04-13T23:32:36.377Z,3.30
2023-04-13T23:35:05.844Z,3.20
2023-04-13T23:37:34.396Z,3.10
2023-04-13T23:40:04.058Z,3.00
2023-04-13T23:42:37.289Z,3.10
2023-04-13T23:45:06.713Z,3.20
2023-04-13T23:47:36.157Z,3.20
2023-04-13T23:50:05.014Z,3.10
2023-04-13T23:52:34.464Z,2.70
2023-04-13T23:55:03.723Z,3.20
2023-04-13T23:57:35.529Z,2.70
